sensor_id;sensor_type;location;lat;lon;timestamp;P1;durP1;ratioP1;P2;durP2;ratioP2
52512;SDS011;38422;53.172;6.974;2023-06-10T00:01:37;4.88;;;2.67;;
52512;SDS011;38422;53.172;6.974;2023-06-10T00:04:03;4.38;;;2.40;;
52512;SDS011;38422;53.172;6.974;2023-06-10T00:06:29;5.25;;;2.67;;
52512;SDS011;38422;53.172;6.974;2023-06-10T00:09:00;4.65;;;2.45;;
52512;SDS011;38422;53.172;6.974;2023-06-10T00:11:29;4.38;;;2.47;;
52512;SDS011;38422;53.172;6.974;2023-06-10T00:13:56;7.28;;;2.85;;
52512;SDS011;38422;53.172;6.974;2023-06-10T00:16:22;5.72;;;2.67;;
52512;SDS011;38422;53.172;6.974;2023-06-10T00:18:47;5.03;;;2.80;;
52512;SDS011;38422;53.172;6.974;2023-06-10T00:21:16;4.25;;;2.50;;
52512;SDS011;38422;53.172;6.974;2023-06-10T00:23:42;4.13;;;2.42;;
52512;SDS011;38422;53.172;6.974;2023-06-10T00:26:08;4.97;;;2.47;;
52512;SDS011;38422;53.172;6.974;2023-06-10T00:28:34;5.45;;;2.50;;
52512;SDS011;38422;53.172;6.974;2023-06-10T00:31:00;5.43;;;2.60;;
52512;SDS011;38422;53.172;6.974;2023-06-10T00:33:27;5.63;;;2.50;;
52512;SDS011;38422;53.172;6.974;2023-06-10T00:35:53;5.85;;;2.85;;
52512;SDS011;38422;53.172;6.974;2023-06-10T00:38:19;5.57;;;2.67;;
52512;SDS011;38422;53.172;6.974;2023-06-10T00:40:44;5.10;;;2.60;;
52512;SDS011;38422;53.172;6.974;2023-06-10T00:43:11;6.53;;;2.70;;
52512;SDS011;38422;53.172;6.974;2023-06-10T00:45:37;5.30;;;2.78;;
52512;SDS011;38422;53.172;6.974;2023-06-10T00:48:02;5.60;;;2.50;;
52512;SDS011;38422;53.172;6.974;2023-06-10T00:50:29;4.32;;;2.60;;
52512;SDS011;38422;53.172;6.974;2023-06-10T00:52:58;5.20;;;2.65;;
52512;SDS011;38422;53.172;6.974;2023-06-10T00:55:25;6.53;;;2.67;;
52512;SDS011;38422;53.172;6.974;2023-06-10T00:57:52;4.63;;;2.67;;
52512;SDS011;38422;53.172;6.974;2023-06-10T01:00:18;6.07;;;2.75;;
52512;SDS011;38422;53.172;6.974;2023-06-10T01:02:44;3.80;;;2.30;;
52512;SDS011;38422;53.172;6.974;2023-06-10T01:05:10;5.97;;;2.75;;
52512;SDS011;38422;53.172;6.974;2023-06-10T01:13:23;6.47;;;2.88;;
52512;SDS011;38422;53.172;6.974;2023-06-10T01:15:54;5.63;;;2.92;;
52512;SDS011;38422;53.172;6.974;2023-06-10T01:20:47;5.60;;;2.60;;
52512;SDS011;38422;53.172;6.974;2023-06-10T01:23:13;6.65;;;3.00;;
52512;SDS011;38422;53.172;6.974;2023-06-10T01:25:52;5.50;;;2.70;;
52512;SDS011;38422;53.172;6.974;2023-06-10T01:34:15;6.57;;;2.90;;
52512;SDS011;38422;53.172;6.974;2023-06-10T01:36:47;5.13;;;2.90;;
52512;SDS011;38422;53.172;6.974;2023-06-10T01:39:14;5.07;;;2.72;;
52512;SDS011;38422;53.172;6.974;2023-06-10T01:41:42;5.05;;;2.70;;
52512;SDS011;38422;53.172;6.974;2023-06-10T01:44:08;3.80;;;2.67;;
52512;SDS011;38422;53.172;6.974;2023-06-10T01:46:34;5.60;;;2.73;;
52512;SDS011;38422;53.172;6.974;2023-06-10T01:49:00;6.38;;;2.88;;
52512;SDS011;38422;53.172;6.974;2023-06-10T01:51:26;5.72;;;2.80;;
52512;SDS011;38422;53.172;6.974;2023-06-10T01:53:52;4.40;;;2.50;;
52512;SDS011;38422;53.172;6.974;2023-06-10T01:56:17;4.65;;;2.80;;
52512;SDS011;38422;53.172;6.974;2023-06-10T02:01:13;5.43;;;2.75;;
52512;SDS011;38422;53.172;6.974;2023-06-10T02:03:39;8.98;;;2.90;;
52512;SDS011;38422;53.172;6.974;2023-06-10T02:06:06;5.37;;;2.50;;
52512;SDS011;38422;53.172;6.974;2023-06-10T02:08:31;4.63;;;2.72;;
52512;SDS011;38422;53.172;6.974;2023-06-10T02:10:57;4.43;;;2.70;;
52512;SDS011;38422;53.172;6.974;2023-06-10T02:13:23;5.47;;;2.63;;
52512;SDS011;38422;53.172;6.974;2023-06-10T02:15:49;8.60;;;3.00;;
52512;SDS011;38422;53.172;6.974;2023-06-10T02:18:14;5.43;;;2.67;;
52512;SDS011;38422;53.172;6.974;2023-06-10T02:20:40;4.97;;;2.60;;
52512;SDS011;38422;53.172;6.974;2023-06-10T02:23:06;5.43;;;2.70;;
52512;SDS011;38422;53.172;6.974;2023-06-10T02:25:32;5.47;;;2.88;;
52512;SDS011;38422;53.172;6.974;2023-06-10T02:27:57;4.97;;;2.45;;
52512;SDS011;38422;53.172;6.974;2023-06-10T02:30:23;4.88;;;2.58;;
52512;SDS011;38422;53.172;6.974;2023-06-10T02:32:49;5.57;;;2.58;;
52512;SDS011;38422;53.172;6.974;2023-06-10T02:35:15;4.38;;;2.58;;
52512;SDS011;38422;53.172;6.974;2023-06-10T02:37:42;4.63;;;2.70;;
52512;SDS011;38422;53.172;6.974;2023-06-10T02:40:08;4.75;;;2.47;;
52512;SDS011;38422;53.172;6.974;2023-06-10T02:42:35;5.32;;;2.60;;
52512;SDS011;38422;53.172;6.974;2023-06-10T02:45:01;5.90;;;2.67;;
52512;SDS011;38422;53.172;6.974;2023-06-10T02:47:27;4.87;;;2.70;;
52512;SDS011;38422;53.172;6.974;2023-06-10T02:49:53;6.72;;;3.03;;
52512;SDS011;38422;53.172;6.974;2023-06-10T02:52:19;7.07;;;2.53;;
52512;SDS011;38422;53.172;6.974;2023-06-10T02:54:45;7.78;;;2.63;;
52512;SDS011;38422;53.172;6.974;2023-06-10T02:57:11;6.75;;;2.55;;
52512;SDS011;38422;53.172;6.974;2023-06-10T02:59:37;5.50;;;2.72;;
52512;SDS011;38422;53.172;6.974;2023-06-10T03:02:02;5.45;;;2.80;;
52512;SDS011;38422;53.172;6.974;2023-06-10T03:04:28;5.13;;;2.60;;
52512;SDS011;38422;53.172;6.974;2023-06-10T03:06:55;5.75;;;2.70;;
52512;SDS011;38422;53.172;6.974;2023-06-10T03:09:21;5.75;;;2.72;;
52512;SDS011;38422;53.172;6.974;2023-06-10T03:11:47;6.90;;;2.80;;
52512;SDS011;38422;53.172;6.974;2023-06-10T03:14:13;6.47;;;2.58;;
52512;SDS011;38422;53.172;6.974;2023-06-10T03:16:38;5.68;;;2.85;;
52512;SDS011;38422;53.172;6.974;2023-06-10T03:19:08;5.82;;;2.95;;
52512;SDS011;38422;53.172;6.974;2023-06-10T03:21:36;4.60;;;2.60;;
52512;SDS011;38422;53.172;6.974;2023-06-10T03:24:02;6.03;;;2.80;;
52512;SDS011;38422;53.172;6.974;2023-06-10T03:26:28;7.45;;;2.92;;
52512;SDS011;38422;53.172;6.974;2023-06-10T03:28:54;8.35;;;2.80;;
52512;SDS011;38422;53.172;6.974;2023-06-10T03:31:20;8.52;;;2.85;;
52512;SDS011;38422;53.172;6.974;2023-06-10T03:33:45;7.15;;;2.85;;
52512;SDS011;38422;53.172;6.974;2023-06-10T03:36:11;8.25;;;2.78;;
52512;SDS011;38422;53.172;6.974;2023-06-10T03:38:37;6.38;;;3.00;;
52512;SDS011;38422;53.172;6.974;2023-06-10T03:41:03;7.65;;;3.45;;
52512;SDS011;38422;53.172;6.974;2023-06-10T03:43:29;5.65;;;2.80;;
52512;SDS011;38422;53.172;6.974;2023-06-10T03:48:21;6.43;;;2.83;;
52512;SDS011;38422;53.172;6.974;2023-06-10T03:50:47;7.95;;;3.10;;
52512;SDS011;38422;53.172;6.974;2023-06-10T03:53:15;7.00;;;2.90;;
52512;SDS011;38422;53.172;6.974;2023-06-10T03:55:41;5.95;;;2.83;;
52512;SDS011;38422;53.172;6.974;2023-06-10T03:58:07;7.95;;;3.60;;
52512;SDS011;38422;53.172;6.974;2023-06-10T04:00:33;8.43;;;3.20;;
52512;SDS011;38422;53.172;6.974;2023-06-10T04:03:06;5.78;;;3.35;;
52512;SDS011;38422;53.172;6.974;2023-06-10T04:05:39;6.32;;;3.10;;
52512;SDS011;38422;53.172;6.974;2023-06-10T04:08:06;7.88;;;3.67;;
52512;SDS011;38422;53.172;6.974;2023-06-10T04:10:32;7.63;;;3.20;;
52512;SDS011;38422;53.172;6.974;2023-06-10T04:12:58;6.32;;;3.22;;
52512;SDS011;38422;53.172;6.974;2023-06-10T04:15:24;9.13;;;3.28;;
52512;SDS011;38422;53.172;6.974;2023-06-10T04:17:50;9.27;;;3.65;;
52512;SDS011;38422;53.172;6.974;2023-06-10T04:20:16;6.63;;;3.00;;
52512;SDS011;38422;53.172;6.974;2023-06-10T04:22:42;9.27;;;3.63;;
52512;SDS011;38422;53.172;6.974;2023-06-10T04:25:09;5.90;;;3.45;;
52512;SDS011;38422;53.172;6.974;2023-06-10T04:27:34;6.97;;;3.30;;
52512;SDS011;38422;53.172;6.974;2023-06-10T04:30:00;8.25;;;3.95;;
52512;SDS011;38422;53.172;6.974;2023-06-10T04:32:26;7.17;;;3.37;;
52512;SDS011;38422;53.172;6.974;2023-06-10T04:34:52;6.60;;;3.35;;
52512;SDS011;38422;53.172;6.974;2023-06-10T04:37:18;5.97;;;2.95;;
52512;SDS011;38422;53.172;6.974;2023-06-10T04:39:44;7.60;;;3.33;;
52512;SDS011;38422;53.172;6.974;2023-06-10T04:42:10;6.40;;;3.38;;
52512;SDS011;38422;53.172;6.974;2023-06-10T04:44:35;8.07;;;3.42;;
52512;SDS011;38422;53.172;6.974;2023-06-10T04:47:01;6.20;;;3.38;;
52512;SDS011;38422;53.172;6.974;2023-06-10T04:49:27;6.65;;;3.30;;
52512;SDS011;38422;53.172;6.974;2023-06-10T04:51:53;9.38;;;3.50;;
52512;SDS011;38422;53.172;6.974;2023-06-10T04:54:19;6.95;;;3.45;;
52512;SDS011;38422;53.172;6.974;2023-06-10T04:56:45;7.30;;;3.30;;
52512;SDS011;38422;53.172;6.974;2023-06-10T04:59:11;7.60;;;3.50;;
52512;SDS011;38422;53.172;6.974;2023-06-10T05:01:39;6.88;;;3.30;;
52512;SDS011;38422;53.172;6.974;2023-06-10T05:04:05;7.63;;;3.22;;
52512;SDS011;38422;53.172;6.974;2023-06-10T05:06:30;6.88;;;3.42;;
52512;SDS011;38422;53.172;6.974;2023-06-10T05:08:56;9.13;;;3.70;;
52512;SDS011;38422;53.172;6.974;2023-06-10T05:11:22;7.53;;;3.90;;
52512;SDS011;38422;53.172;6.974;2023-06-10T05:13:47;6.90;;;3.55;;
52512;SDS011;38422;53.172;6.974;2023-06-10T05:16:14;6.03;;;3.38;;
52512;SDS011;38422;53.172;6.974;2023-06-10T05:18:40;9.13;;;3.70;;
52512;SDS011;38422;53.172;6.974;2023-06-10T05:21:06;8.23;;;3.95;;
52512;SDS011;38422;53.172;6.974;2023-06-10T05:23:32;8.30;;;3.60;;
52512;SDS011;38422;53.172;6.974;2023-06-10T05:25:58;9.70;;;4.00;;
52512;SDS011;38422;53.172;6.974;2023-06-10T05:28:24;8.52;;;3.53;;
52512;SDS011;38422;53.172;6.974;2023-06-10T05:30:51;8.18;;;3.78;;
52512;SDS011;38422;53.172;6.974;2023-06-10T05:33:16;7.25;;;3.30;;
52512;SDS011;38422;53.172;6.974;2023-06-10T05:35:42;6.40;;;3.10;;
52512;SDS011;38422;53.172;6.974;2023-06-10T05:38:08;5.53;;;3.17;;
52512;SDS011;38422;53.172;6.974;2023-06-10T05:40:34;8.43;;;3.58;;
52512;SDS011;38422;53.172;6.974;2023-06-10T05:42:59;7.05;;;3.75;;
52512;SDS011;38422;53.172;6.974;2023-06-10T05:45:25;8.45;;;3.58;;
52512;SDS011;38422;53.172;6.974;2023-06-10T05:47:52;6.75;;;3.15;;
52512;SDS011;38422;53.172;6.974;2023-06-10T05:50:17;7.88;;;3.40;;
52512;SDS011;38422;53.172;6.974;2023-06-10T05:52:43;6.43;;;3.30;;
52512;SDS011;38422;53.172;6.974;2023-06-10T05:55:09;7.22;;;4.13;;
52512;SDS011;38422;53.172;6.974;2023-06-10T05:57:35;8.93;;;3.53;;
52512;SDS011;38422;53.172;6.974;2023-06-10T06:00:00;5.32;;;3.40;;
52512;SDS011;38422;53.172;6.974;2023-06-10T06:02:26;6.57;;;3.22;;
52512;SDS011;38422;53.172;6.974;2023-06-10T06:04:52;10.13;;;3.58;;
52512;SDS011;38422;53.172;6.974;2023-06-10T06:07:17;7.38;;;3.60;;
52512;SDS011;38422;53.172;6.974;2023-06-10T06:09:45;7.95;;;3.50;;
52512;SDS011;38422;53.172;6.974;2023-06-10T06:12:12;7.50;;;3.33;;
52512;SDS011;38422;53.172;6.974;2023-06-10T06:14:38;9.55;;;3.88;;
52512;SDS011;38422;53.172;6.974;2023-06-10T06:17:06;7.03;;;4.00;;
52512;SDS011;38422;53.172;6.974;2023-06-10T06:19:33;6.95;;;3.58;;
52512;SDS011;38422;53.172;6.974;2023-06-10T06:21:59;9.03;;;3.70;;
52512;SDS011;38422;53.172;6.974;2023-06-10T06:24:24;7.70;;;3.50;;
52512;SDS011;38422;53.172;6.974;2023-06-10T06:26:50;8.60;;;3.72;;
52512;SDS011;38422;53.172;6.974;2023-06-10T06:29:16;7.30;;;3.80;;
52512;SDS011;38422;53.172;6.974;2023-06-10T06:31:42;6.88;;;3.55;;
52512;SDS011;38422;53.172;6.974;2023-06-10T06:34:07;7.40;;;3.10;;
52512;SDS011;38422;53.172;6.974;2023-06-10T06:36:33;7.22;;;4.05;;
52512;SDS011;38422;53.172;6.974;2023-06-10T06:38:59;6.88;;;3.30;;
52512;SDS011;38422;53.172;6.974;2023-06-10T06:41:27;8.02;;;3.47;;
52512;SDS011;38422;53.172;6.974;2023-06-10T06:43:54;6.80;;;3.40;;
52512;SDS011;38422;53.172;6.974;2023-06-10T06:46:20;7.70;;;3.80;;
52512;SDS011;38422;53.172;6.974;2023-06-10T06:48:46;5.50;;;3.58;;
52512;SDS011;38422;53.172;6.974;2023-06-10T06:51:12;5.57;;;3.40;;
52512;SDS011;38422;53.172;6.974;2023-06-10T06:53:38;5.65;;;3.42;;
52512;SDS011;38422;53.172;6.974;2023-06-10T06:56:09;6.32;;;3.08;;
52512;SDS011;38422;53.172;6.974;2023-06-10T06:58:35;8.15;;;3.47;;
52512;SDS011;38422;53.172;6.974;2023-06-10T07:01:01;10.30;;;3.45;;
52512;SDS011;38422;53.172;6.974;2023-06-10T07:03:27;6.72;;;3.15;;
52512;SDS011;38422;53.172;6.974;2023-06-10T07:05:52;5.63;;;2.88;;
52512;SDS011;38422;53.172;6.974;2023-06-10T07:08:18;5.97;;;3.10;;
52512;SDS011;38422;53.172;6.974;2023-06-10T07:10:44;7.30;;;3.10;;
52512;SDS011;38422;53.172;6.974;2023-06-10T07:13:09;8.25;;;3.08;;
52512;SDS011;38422;53.172;6.974;2023-06-10T07:15:35;7.97;;;3.00;;
52512;SDS011;38422;53.172;6.974;2023-06-10T07:18:01;8.02;;;3.40;;
52512;SDS011;38422;53.172;6.974;2023-06-10T07:20:27;6.07;;;2.92;;
52512;SDS011;38422;53.172;6.974;2023-06-10T07:22:52;9.27;;;2.90;;
52512;SDS011;38422;53.172;6.974;2023-06-10T07:25:18;7.43;;;2.85;;
52512;SDS011;38422;53.172;6.974;2023-06-10T07:27:44;5.50;;;2.75;;
52512;SDS011;38422;53.172;6.974;2023-06-10T07:30:10;6.18;;;2.70;;
52512;SDS011;38422;53.172;6.974;2023-06-10T07:32:36;6.15;;;2.95;;
52512;SDS011;38422;53.172;6.974;2023-06-10T07:35:02;4.78;;;2.53;;
52512;SDS011;38422;53.172;6.974;2023-06-10T07:37:27;7.53;;;2.72;;
52512;SDS011;38422;53.172;6.974;2023-06-10T07:39:53;6.28;;;2.95;;
52512;SDS011;38422;53.172;6.974;2023-06-10T07:42:20;4.97;;;2.38;;
52512;SDS011;38422;53.172;6.974;2023-06-10T07:44:45;7.13;;;2.60;;
52512;SDS011;38422;53.172;6.974;2023-06-10T07:47:12;6.47;;;2.38;;
52512;SDS011;38422;53.172;6.974;2023-06-10T07:49:37;8.25;;;2.88;;
52512;SDS011;38422;53.172;6.974;2023-06-10T07:52:03;6.28;;;2.75;;
52512;SDS011;38422;53.172;6.974;2023-06-10T07:54:29;6.70;;;2.70;;
52512;SDS011;38422;53.172;6.974;2023-06-10T07:56:55;7.65;;;2.80;;
52512;SDS011;38422;53.172;6.974;2023-06-10T07:59:20;5.90;;;2.60;;
52512;SDS011;38422;53.172;6.974;2023-06-10T08:01:46;5.80;;;2.63;;
52512;SDS011;38422;53.172;6.974;2023-06-10T08:04:12;6.00;;;2.45;;
52512;SDS011;38422;53.172;6.974;2023-06-10T08:06:37;4.75;;;2.58;;
52512;SDS011;38422;53.172;6.974;2023-06-10T08:09:03;6.00;;;2.70;;
52512;SDS011;38422;53.172;6.974;2023-06-10T08:11:29;4.68;;;2.20;;
52512;SDS011;38422;53.172;6.974;2023-06-10T08:13:55;5.45;;;2.95;;
52512;SDS011;38422;53.172;6.974;2023-06-10T08:16:21;5.72;;;2.70;;
52512;SDS011;38422;53.172;6.974;2023-06-10T08:18:47;6.35;;;2.70;;
52512;SDS011;38422;53.172;6.974;2023-06-10T08:21:12;5.57;;;2.65;;
52512;SDS011;38422;53.172;6.974;2023-06-10T08:23:38;4.45;;;2.22;;
52512;SDS011;38422;53.172;6.974;2023-06-10T08:26:04;4.60;;;2.28;;
52512;SDS011;38422;53.172;6.974;2023-06-10T08:28:30;6.55;;;2.58;;
52512;SDS011;38422;53.172;6.974;2023-06-10T08:30:55;5.55;;;2.30;;
52512;SDS011;38422;53.172;6.974;2023-06-10T08:33:21;5.75;;;2.70;;
52512;SDS011;38422;53.172;6.974;2023-06-10T08:35:47;5.47;;;2.80;;
52512;SDS011;38422;53.172;6.974;2023-06-10T08:38:12;4.43;;;2.13;;
52512;SDS011;38422;53.172;6.974;2023-06-10T08:40:38;6.15;;;2.58;;
52512;SDS011;38422;53.172;6.974;2023-06-10T08:45:36;6.68;;;2.42;;
52512;SDS011;38422;53.172;6.974;2023-06-10T08:48:02;4.93;;;2.45;;
52512;SDS011;38422;53.172;6.974;2023-06-10T08:50:32;5.93;;;2.55;;
52512;SDS011;38422;53.172;6.974;2023-06-10T08:53:00;5.57;;;2.55;;
52512;SDS011;38422;53.172;6.974;2023-06-10T08:55:38;8.32;;;2.75;;
52512;SDS011;38422;53.172;6.974;2023-06-10T08:58:07;6.63;;;2.20;;
52512;SDS011;38422;53.172;6.974;2023-06-10T09:00:33;5.38;;;2.45;;
52512;SDS011;38422;53.172;6.974;2023-06-10T09:03:00;5.28;;;2.70;;
52512;SDS011;38422;53.172;6.974;2023-06-10T09:05:27;3.83;;;2.17;;
52512;SDS011;38422;53.172;6.974;2023-06-10T09:07:54;4.72;;;2.30;;
52512;SDS011;38422;53.172;6.974;2023-06-10T09:10:22;5.50;;;2.50;;
52512;SDS011;38422;53.172;6.974;2023-06-10T09:12:48;6.25;;;2.60;;
52512;SDS011;38422;53.172;6.974;2023-06-10T09:15:13;9.05;;;2.70;;
52512;SDS011;38422;53.172;6.974;2023-06-10T09:17:40;4.40;;;2.20;;
52512;SDS011;38422;53.172;6.974;2023-06-10T09:20:06;6.85;;;2.80;;
52512;SDS011;38422;53.172;6.974;2023-06-10T09:22:33;5.13;;;2.42;;
52512;SDS011;38422;53.172;6.974;2023-06-10T09:25:02;6.60;;;2.33;;
52512;SDS011;38422;53.172;6.974;2023-06-10T09:27:55;4.55;;;2.20;;
52512;SDS011;38422;53.172;6.974;2023-06-10T09:30:24;5.05;;;2.22;;
52512;SDS011;38422;53.172;6.974;2023-06-10T09:32:54;4.18;;;2.20;;
52512;SDS011;38422;53.172;6.974;2023-06-10T09:35:24;5.15;;;2.15;;
52512;SDS011;38422;53.172;6.974;2023-06-10T09:37:54;4.45;;;2.38;;
52512;SDS011;38422;53.172;6.974;2023-06-10T09:40:21;5.13;;;2.45;;
52512;SDS011;38422;53.172;6.974;2023-06-10T09:42:47;7.05;;;2.22;;
52512;SDS011;38422;53.172;6.974;2023-06-10T09:45:31;4.50;;;2.20;;
52512;SDS011;38422;53.172;6.974;2023-06-10T09:47:57;4.20;;;1.90;;
52512;SDS011;38422;53.172;6.974;2023-06-10T09:50:23;5.13;;;2.17;;
52512;SDS011;38422;53.172;6.974;2023-06-10T09:52:49;5.75;;;2.20;;
52512;SDS011;38422;53.172;6.974;2023-06-10T09:55:16;5.97;;;2.13;;
52512;SDS011;38422;53.172;6.974;2023-06-10T09:57:42;6.07;;;2.30;;
52512;SDS011;38422;53.172;6.974;2023-06-10T10:00:12;5.40;;;2.08;;
52512;SDS011;38422;53.172;6.974;2023-06-10T10:05:15;4.93;;;2.00;;
52512;SDS011;38422;53.172;6.974;2023-06-10T10:07:42;5.13;;;2.05;;
52512;SDS011;38422;53.172;6.974;2023-06-10T10:10:08;4.28;;;1.83;;
52512;SDS011;38422;53.172;6.974;2023-06-10T10:12:38;6.22;;;2.60;;
52512;SDS011;38422;53.172;6.974;2023-06-10T10:15:08;5.57;;;2.20;;
52512;SDS011;38422;53.172;6.974;2023-06-10T10:20:26;6.82;;;2.20;;
52512;SDS011;38422;53.172;6.974;2023-06-10T10:22:56;4.70;;;2.15;;
52512;SDS011;38422;53.172;6.974;2023-06-10T10:27:58;4.28;;;2.13;;
52512;SDS011;38422;53.172;6.974;2023-06-10T10:30:31;6.05;;;2.30;;
52512;SDS011;38422;53.172;6.974;2023-06-10T10:35:58;6.57;;;2.30;;
52512;SDS011;38422;53.172;6.974;2023-06-10T10:38:25;4.97;;;2.20;;
52512;SDS011;38422;53.172;6.974;2023-06-10T10:40:53;5.30;;;2.45;;
52512;SDS011;38422;53.172;6.974;2023-06-10T10:43:20;6.38;;;2.45;;
52512;SDS011;38422;53.172;6.974;2023-06-10T10:45:57;6.37;;;2.40;;
52512;SDS011;38422;53.172;6.974;2023-06-10T10:48:27;4.90;;;2.17;;
52512;SDS011;38422;53.172;6.974;2023-06-10T10:50:59;5.22;;;2.08;;
52512;SDS011;38422;53.172;6.974;2023-06-10T10:53:25;5.67;;;2.30;;
52512;SDS011;38422;53.172;6.974;2023-06-10T10:56:04;4.67;;;2.20;;
52512;SDS011;38422;53.172;6.974;2023-06-10T10:58:34;6.00;;;2.50;;
52512;SDS011;38422;53.172;6.974;2023-06-10T11:01:02;5.57;;;2.40;;
52512;SDS011;38422;53.172;6.974;2023-06-10T11:03:43;5.78;;;2.40;;
52512;SDS011;38422;53.172;6.974;2023-06-10T11:06:13;5.13;;;2.33;;
52512;SDS011;38422;53.172;6.974;2023-06-10T11:13:57;5.65;;;2.40;;
52512;SDS011;38422;53.172;6.974;2023-06-10T11:16:25;4.25;;;1.92;;
52512;SDS011;38422;53.172;6.974;2023-06-10T11:18:55;4.55;;;2.00;;
52512;SDS011;38422;53.172;6.974;2023-06-10T11:21:24;3.78;;;2.10;;
52512;SDS011;38422;53.172;6.974;2023-06-10T11:23:50;8.05;;;2.50;;
52512;SDS011;38422;53.172;6.974;2023-06-10T11:31:23;4.03;;;2.27;;
52512;SDS011;38422;53.172;6.974;2023-06-10T11:33:54;5.40;;;2.25;;
52512;SDS011;38422;53.172;6.974;2023-06-10T11:36:23;4.57;;;2.28;;
52512;SDS011;38422;53.172;6.974;2023-06-10T11:38:51;4.45;;;2.30;;
52512;SDS011;38422;53.172;6.974;2023-06-10T11:41:20;6.05;;;2.40;;
52512;SDS011;38422;53.172;6.974;2023-06-10T11:43:46;5.32;;;2.00;;
52512;SDS011;38422;53.172;6.974;2023-06-10T11:46:12;5.25;;;2.20;;
52512;SDS011;38422;53.172;6.974;2023-06-10T11:48:39;4.57;;;2.30;;
52512;SDS011;38422;53.172;6.974;2023-06-10T11:51:13;4.63;;;2.40;;
52512;SDS011;38422;53.172;6.974;2023-06-10T11:53:39;5.20;;;2.20;;
52512;SDS011;38422;53.172;6.974;2023-06-10T11:56:05;2.97;;;1.97;;
52512;SDS011;38422;53.172;6.974;2023-06-10T11:58:31;6.65;;;2.47;;
52512;SDS011;38422;53.172;6.974;2023-06-10T12:00:56;4.20;;;2.23;;
52512;SDS011;38422;53.172;6.974;2023-06-10T12:03:23;5.03;;;2.22;;
52512;SDS011;38422;53.172;6.974;2023-06-10T12:06:00;6.47;;;2.60;;
52512;SDS011;38422;53.172;6.974;2023-06-10T12:08:27;3.25;;;2.00;;
52512;SDS011;38422;53.172;6.974;2023-06-10T12:10:53;4.93;;;2.40;;
52512;SDS011;38422;53.172;6.974;2023-06-10T12:13:20;4.00;;;2.33;;
52512;SDS011;38422;53.172;6.974;2023-06-10T12:15:46;4.15;;;2.08;;
52512;SDS011;38422;53.172;6.974;2023-06-10T12:20:44;4.57;;;2.40;;
52512;SDS011;38422;53.172;6.974;2023-06-10T12:23:10;4.47;;;2.13;;
52512;SDS011;38422;53.172;6.974;2023-06-10T12:25:37;3.85;;;2.05;;
52512;SDS011;38422;53.172;6.974;2023-06-10T12:28:04;5.63;;;1.80;;
52512;SDS011;38422;53.172;6.974;2023-06-10T12:30:30;5.18;;;2.10;;
52512;SDS011;38422;53.172;6.974;2023-06-10T12:32:57;5.25;;;2.10;;
52512;SDS011;38422;53.172;6.974;2023-06-10T12:40:30;2.90;;;1.98;;
52512;SDS011;38422;53.172;6.974;2023-06-10T12:43:01;5.35;;;2.08;;
52512;SDS011;38422;53.172;6.974;2023-06-10T12:45:28;4.43;;;2.15;;
52512;SDS011;38422;53.172;6.974;2023-06-10T12:48:08;3.85;;;1.80;;
52512;SDS011;38422;53.172;6.974;2023-06-10T12:50:51;5.30;;;2.05;;
52512;SDS011;38422;53.172;6.974;2023-06-10T12:53:18;3.08;;;1.90;;
52512;SDS011;38422;53.172;6.974;2023-06-10T12:55:45;3.63;;;1.65;;
52512;SDS011;38422;53.172;6.974;2023-06-10T12:58:11;3.20;;;1.75;;
52512;SDS011;38422;53.172;6.974;2023-06-10T13:03:04;4.22;;;1.92;;
52512;SDS011;38422;53.172;6.974;2023-06-10T13:05:31;4.32;;;1.90;;
52512;SDS011;38422;53.172;6.974;2023-06-10T13:10:23;4.60;;;2.08;;
52512;SDS011;38422;53.172;6.974;2023-06-10T13:12:49;5.97;;;2.20;;
52512;SDS011;38422;53.172;6.974;2023-06-10T13:15:15;5.28;;;1.75;;
52512;SDS011;38422;53.172;6.974;2023-06-10T13:17:42;3.38;;;1.88;;
52512;SDS011;38422;53.172;6.974;2023-06-10T13:20:15;2.83;;;1.77;;
52512;SDS011;38422;53.172;6.974;2023-06-10T13:22:42;3.88;;;1.98;;
52512;SDS011;38422;53.172;6.974;2023-06-10T13:25:08;3.65;;;2.05;;
52512;SDS011;38422;53.172;6.974;2023-06-10T13:30:03;4.13;;;1.90;;
52512;SDS011;38422;53.172;6.974;2023-06-10T13:32:29;3.92;;;1.80;;
52512;SDS011;38422;53.172;6.974;2023-06-10T13:34:56;3.08;;;1.77;;
52512;SDS011;38422;53.172;6.974;2023-06-10T13:37:22;5.18;;;1.75;;
52512;SDS011;38422;53.172;6.974;2023-06-10T13:42:18;5.20;;;2.10;;
52512;SDS011;38422;53.172;6.974;2023-06-10T13:44:45;5.03;;;1.90;;
52512;SDS011;38422;53.172;6.974;2023-06-10T13:47:12;4.78;;;2.05;;
52512;SDS011;38422;53.172;6.974;2023-06-10T13:49:38;5.20;;;1.60;;
52512;SDS011;38422;53.172;6.974;2023-06-10T13:52:05;4.22;;;1.70;;
52512;SDS011;38422;53.172;6.974;2023-06-10T13:54:32;3.20;;;1.60;;
52512;SDS011;38422;53.172;6.974;2023-06-10T13:56:58;3.33;;;1.70;;
52512;SDS011;38422;53.172;6.974;2023-06-10T13:59:25;4.00;;;1.70;;
52512;SDS011;38422;53.172;6.974;2023-06-10T14:01:51;4.43;;;1.80;;
52512;SDS011;38422;53.172;6.974;2023-06-10T14:04:16;4.43;;;2.00;;
52512;SDS011;38422;53.172;6.974;2023-06-10T14:06:42;3.58;;;1.63;;
52512;SDS011;38422;53.172;6.974;2023-06-10T14:11:34;6.55;;;1.70;;
52512;SDS011;38422;53.172;6.974;2023-06-10T14:14:00;3.35;;;1.67;;
52512;SDS011;38422;53.172;6.974;2023-06-10T14:16:26;3.58;;;1.55;;
52512;SDS011;38422;53.172;6.974;2023-06-10T14:21:18;3.35;;;1.50;;
52512;SDS011;38422;53.172;6.974;2023-06-10T14:26:10;5.28;;;1.75;;
52512;SDS011;38422;53.172;6.974;2023-06-10T14:28:36;3.67;;;1.50;;
52512;SDS011;38422;53.172;6.974;2023-06-10T14:31:02;3.33;;;1.30;;
52512;SDS011;38422;53.172;6.974;2023-06-10T14:33:28;4.28;;;1.60;;
52512;SDS011;38422;53.172;6.974;2023-06-10T14:35:56;3.13;;;1.40;;
52512;SDS011;38422;53.172;6.974;2023-06-10T14:38:21;3.25;;;1.67;;
52512;SDS011;38422;53.172;6.974;2023-06-10T14:40:47;2.83;;;1.30;;
52512;SDS011;38422;53.172;6.974;2023-06-10T14:43:13;3.60;;;1.52;;
52512;SDS011;38422;53.172;6.974;2023-06-10T14:45:39;3.67;;;1.33;;
52512;SDS011;38422;53.172;6.974;2023-06-10T14:48:05;3.80;;;1.48;;
52512;SDS011;38422;53.172;6.974;2023-06-10T14:50:32;2.83;;;1.40;;
52512;SDS011;38422;53.172;6.974;2023-06-10T14:53:01;3.78;;;1.38;;
52512;SDS011;38422;53.172;6.974;2023-06-10T14:57:53;5.35;;;1.63;;
52512;SDS011;38422;53.172;6.974;2023-06-10T15:00:19;3.97;;;1.63;;
52512;SDS011;38422;53.172;6.974;2023-06-10T15:02:49;4.60;;;1.60;;
52512;SDS011;38422;53.172;6.974;2023-06-10T15:05:16;7.07;;;1.90;;
52512;SDS011;38422;53.172;6.974;2023-06-10T15:07:42;4.57;;;1.60;;
52512;SDS011;38422;53.172;6.974;2023-06-10T15:10:09;3.03;;;1.50;;
52512;SDS011;38422;53.172;6.974;2023-06-10T15:12:35;2.67;;;1.60;;
52512;SDS011;38422;53.172;6.974;2023-06-10T15:15:01;3.33;;;1.67;;
52512;SDS011;38422;53.172;6.974;2023-06-10T15:17:28;3.13;;;1.45;;
52512;SDS011;38422;53.172;6.974;2023-06-10T15:22:19;3.30;;;1.60;;
52512;SDS011;38422;53.172;6.974;2023-06-10T15:27:11;2.70;;;1.20;;
52512;SDS011;38422;53.172;6.974;2023-06-10T15:29:37;3.40;;;1.35;;
52512;SDS011;38422;53.172;6.974;2023-06-10T15:32:02;4.20;;;1.70;;
52512;SDS011;38422;53.172;6.974;2023-06-10T15:34:28;2.88;;;1.48;;
52512;SDS011;38422;53.172;6.974;2023-06-10T15:36:54;4.20;;;1.58;;
52512;SDS011;38422;53.172;6.974;2023-06-10T15:41:45;2.75;;;1.40;;
52512;SDS011;38422;53.172;6.974;2023-06-10T15:44:11;2.75;;;1.40;;
52512;SDS011;38422;53.172;6.974;2023-06-10T15:46:37;3.03;;;1.42;;
52512;SDS011;38422;53.172;6.974;2023-06-10T15:49:02;2.92;;;1.15;;
52512;SDS011;38422;53.172;6.974;2023-06-10T15:53:55;3.03;;;1.30;;
52512;SDS011;38422;53.172;6.974;2023-06-10T15:58:47;2.33;;;1.30;;
52512;SDS011;38422;53.172;6.974;2023-06-10T16:01:12;2.42;;;1.30;;
52512;SDS011;38422;53.172;6.974;2023-06-10T16:03:39;2.03;;;1.20;;
52512;SDS011;38422;53.172;6.974;2023-06-10T16:06:05;2.17;;;1.30;;
52512;SDS011;38422;53.172;6.974;2023-06-10T16:10:57;2.50;;;1.40;;